createdAt,value
2019-05-12T00:00:51.665Z,102141.55
2019-05-12T00:03:19.451Z,102149.40
2019-05-12T00:21:58.628Z,102160.50
2019-05-12T00:24:27.947Z,102167.98
2019-05-12T00:26:58.041Z,102165.23
2019-05-12T00:29:25.954Z,102170.48
2019-05-12T00:31:53.770Z,102171.75
2019-05-12T00:34:21.777Z,102167.58
2019-05-12T00:36:49.638Z,102170.13
2019-05-12T00:39:19.154Z,102174.20
2019-05-12T00:41:48.218Z,102179.92
2019-05-12T00:44:18.206Z,102184.67
2019-05-12T00:46:45.809Z,102191.23
2019-05-12T00:49:13.659Z,102195.82
2019-05-12T00:51:42.607Z,102200.08
2019-05-12T00:54:10.435Z,102200.17
2019-05-12T00:56:39.183Z,102202.34
2019-05-12T00:59:08.320Z,102211.71
2019-05-12T01:01:38.077Z,102204.70
2019-05-12T01:04:08.512Z,102215.05
2019-05-12T01:06:35.449Z,102143.16
2019-05-12T01:09:08.531Z,102223.11
2019-05-12T01:11:37.827Z,102222.20
2019-05-12T01:14:05.373Z,102227.89
2019-05-12T01:16:33.262Z,102229.36
2019-05-12T01:19:02.137Z,102236.05
2019-05-12T01:21:30.019Z,102239.06
2019-05-12T01:24:03.305Z,102238.69
2019-05-12T01:26:28.425Z,102243.66
2019-05-12T01:28:58.075Z,102243.63
2019-05-12T01:31:28.617Z,102248.44
2019-05-12T01:33:58.445Z,102247.66
2019-05-12T01:36:25.953Z,102253.02
2019-05-12T01:38:53.839Z,102264.19
2019-05-12T01:41:21.734Z,102270.44
2019-05-12T01:43:53.116Z,102271.32
2019-05-12T01:46:21.045Z,102274.91
2019-05-12T01:48:48.896Z,102267.32
2019-05-12T01:51:17.811Z,102270.88
2019-05-12T01:53:48.164Z,102278.95
2019-05-12T01:56:18.097Z,102284.75
2019-05-12T01:58:48.399Z,102290.12
2019-05-12T02:01:18.150Z,102295.48
2019-05-12T02:03:47.951Z,102299.06
2019-05-12T02:06:18.482Z,102296.80
2019-05-12T02:08:53.416Z,102301.26
2019-05-12T02:11:33.567Z,102300.38
2019-05-12T02:14:04.256Z,102298.63
2019-05-12T02:16:32.122Z,102302.17
2019-05-12T02:18:59.934Z,102310.20
2019-05-12T02:21:28.027Z,102305.72
2019-05-12T02:23:58.315Z,102307.55
2019-05-12T02:26:26.423Z,102312.45
2019-05-12T02:28:54.248Z,102320.93
2019-05-12T02:31:22.206Z,102320.88
2019-05-12T02:33:50.071Z,102329.88
2019-05-12T02:36:19.327Z,102330.80
2019-05-12T02:38:47.135Z,102323.14
2019-05-12T02:41:15.695Z,102329.77
2019-05-12T02:43:45.920Z,102331.45
2019-05-12T02:46:15.750Z,102329.22
2019-05-12T02:48:45.005Z,102335.08
2019-05-12T02:51:15.627Z,102335.61
2019-05-12T02:53:42.597Z,102335.21
2019-05-12T02:56:10.581Z,102338.77
2019-05-12T02:58:38.504Z,102345.96
2019-05-12T03:01:06.354Z,102346.41
2019-05-12T03:03:35.346Z,102353.94
2019-05-12T03:06:05.478Z,102355.31
2019-05-12T03:08:34.919Z,102352.02
2019-05-12T03:11:05.980Z,102358.23
2019-05-12T03:13:34.604Z,102360.02
2019-05-12T03:16:04.968Z,102367.80
2019-05-12T03:18:34.549Z,102364.23
2019-05-12T03:21:05.304Z,102370.00
2019-05-12T03:23:30.917Z,102365.52
2019-05-12T03:25:58.848Z,102378.37
2019-05-12T03:28:26.635Z,102375.34
2019-05-12T03:30:57.763Z,102380.69
2019-05-12T03:33:33.132Z,102378.02
2019-05-12T03:36:00.305Z,102381.67
2019-05-12T03:38:27.245Z,102385.16
2019-05-12T03:40:55.104Z,102386.48
2019-05-12T03:43:24.322Z,102389.28
2019-05-12T03:45:55.636Z,102390.59
2019-05-12T03:48:25.054Z,102399.16
2019-05-12T03:50:53.977Z,102403.11
2019-05-12T03:53:24.449Z,102402.31
2019-05-12T03:55:50.478Z,102399.16
2019-05-12T03:58:18.524Z,102402.70
2019-05-12T04:00:46.342Z,102405.86
2019-05-12T04:03:15.284Z,102408.48
2019-05-12T04:05:45.263Z,102415.61
2019-05-12T04:08:15.663Z,102415.61
2019-05-12T04:10:45.195Z,102421.17
2019-05-12T04:13:14.762Z,102419.86
2019-05-12T04:15:45.093Z,102426.33
2019-05-12T04:18:11.215Z,102431.75
2019-05-12T04:20:39.106Z,102436.38
2019-05-12T04:23:07.307Z,102438.84
2019-05-12T04:25:47.640Z,102443.91
2019-05-12T04:28:05.078Z,102448.69
2019-05-12T04:30:35.695Z,102453.52
2019-05-12T04:33:04.760Z,102458.53
2019-05-12T04:35:34.900Z,102462.48
2019-05-12T04:38:04.338Z,102467.37
2019-05-12T04:40:35.327Z,102472.31
2019-05-12T04:43:05.122Z,102473.81
2019-05-12T04:45:34.566Z,102476.80
2019-05-12T04:48:04.751Z,102475.25
2019-05-12T04:50:31.061Z,102482.78
2019-05-12T04:52:59.081Z,102482.52
2019-05-12T04:55:26.942Z,102483.22
2019-05-12T04:57:54.875Z,102495.77
2019-05-12T05:00:25.454Z,102498.34
2019-05-12T05:02:54.570Z,102497.91
2019-05-12T05:05:24.819Z,102503.50
2019-05-12T05:07:54.150Z,102505.99
2019-05-12T05:10:21.665Z,102508.34
2019-05-12T05:12:49.477Z,102515.39
2019-05-12T05:15:17.553Z,102512.65
2019-05-12T05:17:45.325Z,102513.08
2019-05-12T05:20:13.689Z,102513.11
2019-05-12T05:22:43.779Z,102520.22
2019-05-12T05:25:11.233Z,102510.05
2019-05-12T05:27:39.062Z,102504.78
2019-05-12T05:30:07.647Z,102514.94
2019-05-12T05:32:35.580Z,102515.32
2019-05-12T05:35:07.193Z,102528.36
2019-05-12T05:37:37.009Z,102516.34
2019-05-12T05:40:03.907Z,102527.61
2019-05-12T05:42:33.379Z,102528.47
2019-05-12T05:45:04.666Z,102535.79
2019-05-12T05:47:33.452Z,102533.75
2019-05-12T05:50:01.119Z,102543.17
2019-05-12T05:52:33.455Z,102546.00
2019-05-12T05:54:58.577Z,102554.22
2019-05-12T05:57:29.722Z,102553.38
2019-05-12T05:59:55.947Z,102547.16
2019-05-12T06:02:32.040Z,102564.49
2019-05-12T06:04:56.430Z,102563.50
2019-05-12T06:07:35.111Z,102564.16
2019-05-12T06:09:54.138Z,102568.65
2019-05-12T06:12:23.904Z,102542.07
2019-05-12T06:14:55.336Z,102575.32
2019-05-12T06:17:23.501Z,102577.86
2019-05-12T06:19:53.852Z,102580.70
2019-05-12T06:22:23.509Z,102579.22
2019-05-12T06:24:56.946Z,102584.33
2019-05-12T06:27:21.242Z,102583.00
2019-05-12T06:29:52.454Z,102589.75
2019-05-12T06:32:20.075Z,102598.97
2019-05-12T06:34:50.886Z,102594.08
2019-05-12T06:37:17.586Z,102602.48
2019-05-12T06:39:46.112Z,102607.06
2019-05-12T06:42:16.802Z,102603.97
2019-05-12T06:44:43.820Z,102608.44
2019-05-12T06:47:11.741Z,102610.78
2019-05-12T06:49:39.614Z,102611.69
2019-05-12T06:52:07.509Z,102614.39
2019-05-12T06:54:35.346Z,102616.01
2019-05-12T06:57:21.399Z,102618.88
2019-05-12T06:59:34.767Z,102629.56
2019-05-12T07:02:03.401Z,102634.75
2019-05-12T07:04:33.716Z,102644.85
2019-05-12T07:07:01.023Z,102642.16
2019-05-12T07:09:32.596Z,102649.73
2019-05-12T07:12:03.751Z,102648.38
2019-05-12T07:14:35.157Z,102646.69
2019-05-12T07:17:09.412Z,102652.05
2019-05-12T07:19:37.327Z,102649.28
2019-05-12T07:22:18.881Z,102645.70
2019-05-12T07:24:34.818Z,102658.67
2019-05-12T07:27:08.967Z,102657.81
2019-05-12T07:29:34.216Z,102663.68
2019-05-12T07:32:07.207Z,102666.30
2019-05-12T07:34:33.402Z,102671.71
2019-05-12T07:37:01.303Z,102672.62
2019-05-12T07:39:29.789Z,102684.17
2019-05-12T07:41:58.758Z,102684.26
2019-05-12T07:44:32.159Z,102681.06
2019-05-12T07:46:57.635Z,102673.64
2019-05-12T07:49:34.307Z,102674.22
2019-05-12T07:51:56.258Z,102676.20
2019-05-12T07:54:24.258Z,102676.16
2019-05-12T07:56:53.982Z,102677.06
2019-05-12T07:59:26.693Z,102669.48
2019-05-12T08:01:54.803Z,102671.71
2019-05-12T08:04:23.812Z,102670.70
2019-05-12T08:06:53.758Z,102675.27
2019-05-12T08:09:24.273Z,102675.67
2019-05-12T08:11:54.035Z,102685.13
2019-05-12T08:14:29.010Z,102685.20
2019-05-12T08:16:54.337Z,102692.84
2019-05-12T08:19:28.083Z,102687.98
2019-05-12T08:21:53.605Z,102688.89
2019-05-12T08:24:23.509Z,102705.39
2019-05-12T08:26:58.855Z,102698.68
2019-05-12T08:29:24.533Z,102695.94
2019-05-12T08:31:54.650Z,102701.37
2019-05-12T08:34:23.773Z,102702.56
2019-05-12T08:36:56.782Z,102701.44
2019-05-12T08:39:25.417Z,102706.27
2019-05-12T08:41:53.140Z,102708.43
2019-05-12T08:44:24.563Z,102702.70
2019-05-12T08:46:56.286Z,102696.84
2019-05-12T08:49:23.464Z,102700.69
2019-05-12T08:51:57.781Z,102710.36
2019-05-12T08:54:20.658Z,102728.17
2019-05-12T08:56:51.035Z,102721.00
2019-05-12T08:59:24.258Z,102712.44
2019-05-12T09:01:47.750Z,102724.17
2019-05-12T09:04:18.280Z,102717.99
2019-05-12T09:06:45.303Z,102732.72
2019-05-12T09:09:13.957Z,102726.92
2019-05-12T09:11:43.877Z,102732.30
2019-05-12T09:14:11.402Z,102729.48
2019-05-12T09:16:39.282Z,102728.72
2019-05-12T09:19:10.191Z,102731.33
2019-05-12T09:21:37.232Z,102730.02
2019-05-12T09:24:05.509Z,102736.77
2019-05-12T09:26:34.416Z,102741.09
2019-05-12T09:29:03.484Z,102733.64
2019-05-12T09:31:33.401Z,102726.08
2019-05-12T09:34:05.478Z,102740.48
2019-05-12T09:36:33.600Z,102753.33
2019-05-12T09:39:01.777Z,102754.41
2019-05-12T09:41:35.928Z,102756.48
2019-05-12T09:44:01.681Z,102752.05
2019-05-12T09:46:34.348Z,102747.67
2019-05-12T09:48:59.205Z,102751.46
2019-05-12T09:51:27.076Z,102757.22
2019-05-12T09:53:55.920Z,102751.09
2019-05-12T09:56:24.171Z,102756.45
2019-05-12T10:05:24.677Z,102771.27
2019-05-12T10:07:53.621Z,102782.52
2019-05-12T10:10:21.477Z,102770.95
2019-05-12T10:12:50.701Z,102786.00
2019-05-12T10:15:26.104Z,102772.50
2019-05-12T10:17:48.575Z,102787.50
2019-05-12T10:20:16.523Z,102783.00
2019-05-12T10:22:44.369Z,102784.37
2019-05-12T10:25:14.196Z,102767.92
2019-05-12T10:27:44.063Z,102782.75
2019-05-12T10:30:12.731Z,102784.62
2019-05-12T10:32:41.013Z,102777.17
2019-05-12T10:35:28.166Z,102778.53
2019-05-12T10:38:00.170Z,102778.09
2019-05-12T10:40:25.715Z,102777.34
2019-05-12T10:42:54.693Z,102772.93
2019-05-12T10:45:25.152Z,102771.45
2019-05-12T10:47:53.680Z,102779.69
2019-05-12T10:50:23.402Z,102776.19
2019-05-12T10:52:53.516Z,102794.67
2019-05-12T10:55:20.914Z,102793.33
2019-05-12T10:57:53.029Z,102802.71
2019-05-12T11:00:24.589Z,102791.97
2019-05-12T11:02:49.409Z,102787.58
2019-05-12T11:05:28.583Z,102787.25
2019-05-12T11:08:00.253Z,102791.76
2019-05-12T11:17:18.384Z,102789.48
2019-05-12T11:19:50.044Z,102795.72
2019-05-12T11:22:15.619Z,102797.61
2019-05-12T11:24:44.390Z,102808.77
2019-05-12T11:27:13.498Z,102807.91
2019-05-12T11:29:46.046Z,102802.06
2019-05-12T11:32:14.017Z,102811.06
2019-05-12T11:34:43.819Z,102820.48
2019-05-12T11:37:13.741Z,102818.19
2019-05-12T11:39:46.860Z,102826.72
2019-05-12T11:42:10.348Z,102823.20
2019-05-12T11:44:38.135Z,102835.59
2019-05-12T11:47:05.873Z,102831.65
2019-05-12T11:49:33.767Z,102833.86
2019-05-12T11:52:07.636Z,102834.33
2019-05-12T11:54:30.922Z,102845.48
2019-05-12T11:56:58.851Z,102844.13
2019-05-12T11:59:26.748Z,102853.17
2019-05-12T12:01:56.118Z,102840.69
2019-05-12T12:04:26.737Z,102842.52
2019-05-12T12:06:56.511Z,102803.44
2019-05-12T12:09:31.943Z,102857.19
2019-05-12T12:12:03.140Z,102860.39
2019-05-12T12:14:31.778Z,102861.36
2019-05-12T12:18:03.830Z,102853.27
2019-05-12T12:19:46.832Z,102861.83
2019-05-12T12:22:14.653Z,102859.98
2019-05-12T12:24:43.638Z,102859.56
2019-05-12T12:27:11.394Z,102867.55
2019-05-12T12:29:39.122Z,102877.48
2019-05-12T12:32:18.401Z,102874.84
2019-05-12T12:34:44.205Z,102869.02
2019-05-12T12:37:13.702Z,102878.82
2019-05-12T12:39:43.487Z,102890.03
2019-05-12T12:42:11.035Z,102884.08
2019-05-12T12:44:38.739Z,102883.84
2019-05-12T12:47:06.474Z,102890.04
2019-05-12T12:49:34.296Z,102897.27
2019-05-12T12:52:03.268Z,102895.97
2019-05-12T12:54:33.160Z,102902.24
2019-05-12T12:57:06.466Z,102904.05
2019-05-12T12:59:30.070Z,102908.04
2019-05-12T13:01:59.008Z,102903.97
2019-05-12T13:04:33.973Z,102903.56
2019-05-12T13:07:01.428Z,102904.52
2019-05-12T13:09:29.143Z,102898.22
2019-05-12T13:11:56.858Z,102915.69
2019-05-12T13:14:28.598Z,102904.48
2019-05-12T13:16:56.329Z,102907.65
2019-05-12T13:19:24.407Z,102904.09
2019-05-12T13:21:53.195Z,102905.39
2019-05-12T13:24:21.118Z,102912.55
2019-05-12T13:26:48.827Z,102915.22
2019-05-12T13:29:16.643Z,102926.47
2019-05-12T13:31:46.341Z,102924.70
2019-05-12T13:34:14.418Z,102920.66
2019-05-12T13:36:44.004Z,102918.44
2019-05-12T13:39:20.354Z,102921.17
2019-05-12T13:41:50.453Z,102928.81
2019-05-12T13:44:17.558Z,102934.13
2019-05-12T13:46:48.922Z,102936.77
2019-05-12T13:49:18.973Z,102937.70
2019-05-12T13:51:48.306Z,102930.99
2019-05-12T13:54:20.116Z,102936.30
2019-05-12T13:56:46.791Z,102935.75
2019-05-12T14:00:08.458Z,102934.05
2019-05-12T14:02:26.394Z,102937.16
2019-05-12T14:04:55.131Z,102941.25
2019-05-12T14:07:23.693Z,102949.31
2019-05-12T14:09:51.684Z,102965.52
2019-05-12T14:12:21.074Z,102957.47
2019-05-12T14:14:48.799Z,102954.77
2019-05-12T14:17:16.530Z,102958.81
2019-05-12T14:19:46.225Z,102966.86
2019-05-12T14:22:21.218Z,102958.34
2019-05-12T14:24:46.647Z,102974.92
2019-05-12T14:27:19.203Z,102972.67
2019-05-12T14:29:47.232Z,102981.57
2019-05-12T14:32:17.283Z,102976.67
2019-05-12T14:34:44.380Z,102979.38
2019-05-12T14:37:14.049Z,102969.98
2019-05-12T14:39:46.258Z,102967.70
2019-05-12T14:42:11.097Z,102975.85
2019-05-12T14:44:44.977Z,102974.50
2019-05-12T14:47:08.367Z,102982.56
2019-05-12T14:49:36.155Z,102979.52
2019-05-12T14:52:03.899Z,102976.84
2019-05-12T14:54:31.714Z,102982.67
2019-05-12T14:57:00.228Z,102987.16
2019-05-12T14:59:30.254Z,102993.45
2019-05-12T15:02:03.351Z,102992.95
2019-05-12T15:04:30.067Z,102991.66
2019-05-12T15:06:59.840Z,103001.08
2019-05-12T15:09:27.506Z,102995.67
2019-05-12T15:11:55.243Z,102992.97
2019-05-12T15:14:26.715Z,103002.42
2019-05-12T15:16:54.174Z,103001.95
2019-05-12T15:19:27.850Z,103004.58
2019-05-12T15:21:53.679Z,103003.27
2019-05-12T15:24:21.283Z,103000.11
2019-05-12T15:26:50.581Z,103010.05
2019-05-12T15:29:20.059Z,103009.14
2019-05-12T15:31:56.698Z,103010.50
2019-05-12T15:34:23.719Z,103006.91
2019-05-12T15:36:55.997Z,103015.88
2019-05-12T15:39:21.240Z,103004.66
2019-05-12T15:41:51.161Z,103009.14
2019-05-12T15:44:23.128Z,103011.39
2019-05-12T15:46:48.692Z,103005.12
2019-05-12T15:49:16.521Z,103014.08
2019-05-12T15:51:53.834Z,103019.46
2019-05-12T15:54:14.656Z,103023.52
2019-05-12T15:56:42.610Z,103028.85
2019-05-12T15:59:10.416Z,103031.11
2019-05-12T16:01:38.160Z,103033.83
2019-05-12T16:04:05.882Z,103026.61
2019-05-12T16:06:37.115Z,103037.37
2019-05-12T16:09:07.328Z,103032.41
2019-05-12T16:11:35.091Z,103038.67
2019-05-12T16:14:03.007Z,103038.15
2019-05-12T16:16:36.373Z,103038.22
2019-05-12T16:19:00.408Z,103044.91
2019-05-12T16:21:28.154Z,103056.20
2019-05-12T16:23:56.628Z,103053.05
2019-05-12T16:26:24.605Z,103053.52
2019-05-12T16:28:53.989Z,103053.98
2019-05-12T16:31:23.708Z,103060.22
2019-05-12T16:33:52.843Z,103065.64
2019-05-12T16:36:20.827Z,103064.77
2019-05-12T16:38:50.168Z,103050.77
2019-05-12T16:41:35.311Z,103055.61
2019-05-12T16:44:07.862Z,103062.83
2019-05-12T16:46:33.993Z,103059.27
2019-05-12T16:49:03.310Z,103072.27
2019-05-12T16:51:33.208Z,103074.48
2019-05-12T16:54:00.686Z,103076.30
2019-05-12T16:56:29.876Z,103080.80
2019-05-12T16:58:57.747Z,103076.31
2019-05-12T17:01:29.226Z,103087.52
2019-05-12T17:03:55.027Z,103087.13
2019-05-12T17:06:23.399Z,103084.39
2019-05-12T17:08:51.559Z,103087.55
2019-05-12T17:11:30.977Z,103082.14
2019-05-12T17:14:03.943Z,103089.78
2019-05-12T17:16:26.475Z,103092.44
2019-05-12T17:18:54.332Z,103099.17
2019-05-12T17:21:24.074Z,103098.27
2019-05-12T17:23:53.125Z,103095.55
2019-05-12T17:26:20.908Z,103104.16
2019-05-12T17:28:48.732Z,103108.69
2019-05-12T17:31:16.512Z,103109.03
2019-05-12T17:33:44.263Z,103111.76
2019-05-12T17:36:17.449Z,103112.64
2019-05-12T17:38:43.830Z,103113.19
2019-05-12T17:41:11.039Z,103106.39
2019-05-12T17:43:45.134Z,103113.14
2019-05-12T17:46:18.302Z,103121.21
2019-05-12T17:48:45.391Z,103126.25
2019-05-12T17:51:13.729Z,103129.41
2019-05-12T17:53:43.390Z,103133.84
2019-05-12T17:56:11.042Z,103141.07
2019-05-12T17:58:44.388Z,103141.09
2019-05-12T18:01:08.307Z,103138.83
2019-05-12T18:03:39.252Z,103146.48
2019-05-12T18:06:05.509Z,103153.22
2019-05-12T18:08:36.436Z,103116.00
2019-05-12T18:11:03.728Z,103166.76
2019-05-12T18:13:34.247Z,103166.77
2019-05-12T18:16:05.976Z,103158.22
2019-05-12T18:18:38.072Z,103174.39
2019-05-12T18:21:03.694Z,103182.48
2019-05-12T18:23:31.502Z,103177.06
2019-05-12T18:26:03.116Z,103175.25
2019-05-12T18:28:44.252Z,103177.52
2019-05-12T18:31:13.652Z,103181.12
2019-05-12T18:33:49.019Z,103191.48
2019-05-12T18:36:10.391Z,103190.14
2019-05-12T18:38:38.207Z,103192.87
2019-05-12T18:41:06.022Z,103136.72
2019-05-12T18:43:37.093Z,103190.16
2019-05-12T18:46:09.235Z,103196.88
2019-05-12T18:48:37.203Z,103201.86
2019-05-12T18:51:12.132Z,103203.22
2019-05-12T18:53:35.064Z,103208.19
2019-05-12T18:56:04.556Z,103207.30
2019-05-12T18:58:35.270Z,103213.58
2019-05-12T19:01:03.392Z,103217.98
2019-05-12T19:03:44.814Z,103218.80
2019-05-12T19:06:03.324Z,103222.44
2019-05-12T19:08:30.526Z,103221.55
2019-05-12T19:10:58.294Z,103218.42
2019-05-12T19:13:30.234Z,103228.54
2019-05-12T19:16:02.982Z,103220.12
2019-05-12T19:18:33.273Z,103222.58
2019-05-12T19:20:59.851Z,103231.11
2019-05-12T19:23:35.063Z,103228.38
2019-05-12T19:25:57.094Z,103235.00
2019-05-12T19:28:24.882Z,103243.00
2019-05-12T19:30:54.606Z,103254.43
2019-05-12T19:33:22.644Z,103259.15
2019-05-12T19:35:59.874Z,103256.38
2019-05-12T19:38:51.261Z,103259.22
2019-05-12T19:41:19.261Z,103016.03
2019-05-12T19:43:49.542Z,103261.09
2019-05-12T19:46:16.943Z,103268.76
2019-05-12T19:48:49.801Z,103276.88
2019-05-12T19:51:24.192Z,103278.89
2019-05-12T19:53:44.927Z,103274.42
2019-05-12T19:56:14.249Z,103276.57
2019-05-12T19:58:43.837Z,103278.38
2019-05-12T20:01:14.070Z,103273.78
2019-05-12T20:03:43.949Z,103281.48
2019-05-12T20:06:13.392Z,103280.41
2019-05-12T20:08:45.837Z,103283.64
2019-05-12T20:11:20.194Z,103276.11
2019-05-12T20:13:49.363Z,103277.92
2019-05-12T20:16:21.441Z,103282.36
2019-05-12T20:18:49.266Z,103284.61
2019-05-12T20:21:20.505Z,103287.29
2019-05-12T20:23:47.082Z,103286.80
2019-05-12T20:26:14.863Z,103289.55
2019-05-12T20:28:50.094Z,103287.47
2019-05-12T20:31:13.901Z,103287.17
2019-05-12T20:33:43.484Z,103290.02
2019-05-12T20:36:20.532Z,103290.71
2019-05-12T20:38:44.747Z,103293.09
2019-05-12T20:41:21.780Z,103296.25
2019-05-12T20:43:44.359Z,103301.11
2019-05-12T20:46:15.462Z,103300.03
2019-05-12T20:48:41.206Z,103310.42
2019-05-12T20:51:15.435Z,103307.63
2019-05-12T20:53:38.536Z,103313.00
2019-05-12T20:56:06.261Z,103314.65
2019-05-12T20:58:39.534Z,103319.44
2019-05-12T21:01:05.121Z,103314.43
2019-05-12T21:03:33.619Z,103322.88
2019-05-12T21:06:03.853Z,103324.91
2019-05-12T21:08:30.848Z,103326.89
2019-05-12T21:11:03.063Z,103274.00
2019-05-12T21:13:31.889Z,103342.53
2019-05-12T21:16:00.095Z,103342.98
2019-05-12T21:18:27.830Z,103334.63
2019-05-12T21:20:55.599Z,103330.18
2019-05-12T21:23:24.101Z,103328.59
2019-05-12T21:25:57.768Z,103327.19
2019-05-12T21:28:23.658Z,103334.45
2019-05-12T21:30:53.032Z,103335.67
2019-05-12T21:33:23.982Z,103338.36
2019-05-12T21:35:50.179Z,103330.37
2019-05-12T21:38:19.001Z,103342.12
2019-05-12T21:40:47.361Z,103350.11
2019-05-12T21:43:15.119Z,103351.84
2019-05-12T21:45:44.978Z,103353.39
2019-05-12T21:48:28.659Z,103353.41
2019-05-12T21:50:53.173Z,103363.56
2019-05-12T21:53:57.809Z,103357.91
2019-05-12T21:56:25.727Z,103102.02
2019-05-12T21:58:57.904Z,103368.16
2019-05-12T22:01:23.928Z,103376.37
2019-05-12T22:04:02.081Z,103377.25
2019-05-12T22:06:24.945Z,103378.84
2019-05-12T22:09:01.304Z,103378.61
2019-05-12T22:11:25.941Z,103377.52
2019-05-12T22:13:59.816Z,103376.93
2019-05-12T22:16:23.667Z,103379.25
2019-05-12T22:18:56.139Z,103376.62
2019-05-12T22:21:20.943Z,103387.88
2019-05-12T22:23:51.309Z,103385.36
2019-05-12T22:26:18.171Z,103380.34
2019-05-12T22:28:50.681Z,103384.72
2019-05-12T22:31:15.740Z,103396.66
2019-05-12T22:33:56.383Z,103393.30
2019-05-12T22:36:26.809Z,103394.91
2019-05-12T22:39:00.618Z,103397.06
2019-05-12T22:41:24.272Z,103400.75
2019-05-12T22:43:53.825Z,103401.16
2019-05-12T22:46:23.248Z,103396.36
2019-05-12T22:48:53.433Z,103406.50
2019-05-12T22:51:26.171Z,103413.51
2019-05-12T22:53:50.127Z,103417.92
2019-05-12T22:56:18.863Z,103403.91
2019-05-12T22:58:46.598Z,103411.26
2019-05-12T23:01:14.552Z,103404.03
2019-05-12T23:03:51.715Z,103406.91
2019-05-12T23:06:24.108Z,103404.28
2019-05-12T23:08:49.358Z,103404.77
2019-05-12T23:11:17.355Z,103412.98
2019-05-12T23:13:45.088Z,103407.08
2019-05-12T23:16:14.202Z,103409.70
2019-05-12T23:18:44.304Z,103416.11
2019-05-12T23:21:13.583Z,103418.14
2019-05-12T23:23:40.986Z,103413.44
2019-05-12T23:26:08.735Z,103416.22
2019-05-12T23:28:40.433Z,103421.71
2019-05-12T23:31:06.006Z,103418.98
2019-05-12T23:33:36.781Z,103418.80
2019-05-12T23:36:19.560Z,103420.16
2019-05-12T23:38:44.959Z,103416.57
2019-05-12T23:41:13.560Z,103419.33
2019-05-12T23:43:41.607Z,103417.72
2019-05-12T23:46:09.321Z,103421.23
2019-05-12T23:48:37.062Z,103419.24
2019-05-12T23:51:04.845Z,103418.53
2019-05-12T23:53:33.901Z,103409.52
2019-05-12T23:56:03.684Z,103410.72
2019-05-12T23:58:31.551Z,103407.48
